sensor_id;sensor_type;location;lat;lon;timestamp;P1;durP1;ratioP1;P2;durP2;ratioP2
10633;SDS011;5365;51.640;8.106;2022-09-20T00:01:44;5.87;;;1.97;;
10633;SDS011;5365;51.640;8.106;2022-09-20T00:04:06;3.50;;;1.77;;
10633;SDS011;5365;51.640;8.106;2022-09-20T00:06:29;4.77;;;1.70;;
10633;SDS011;5365;51.640;8.106;2022-09-20T00:08:51;4.50;;;1.80;;
10633;SDS011;5365;51.640;8.106;2022-09-20T00:11:18;4.33;;;1.43;;
10633;SDS011;5365;51.640;8.106;2022-09-20T00:13:41;6.40;;;1.60;;
10633;SDS011;5365;51.640;8.106;2022-09-20T00:16:08;4.57;;;1.73;;
10633;SDS011;5365;51.640;8.106;2022-09-20T00:18:34;4.57;;;1.83;;
10633;SDS011;5365;51.640;8.106;2022-09-20T00:20:56;6.80;;;2.47;;
10633;SDS011;5365;51.640;8.106;2022-09-20T00:23:17;5.90;;;2.17;;
10633;SDS011;5365;51.640;8.106;2022-09-20T00:25:40;7.90;;;2.00;;
10633;SDS011;5365;51.640;8.106;2022-09-20T00:28:02;7.37;;;2.50;;
10633;SDS011;5365;51.640;8.106;2022-09-20T00:30:23;4.20;;;1.93;;
10633;SDS011;5365;51.640;8.106;2022-09-20T00:32:45;5.73;;;2.30;;
10633;SDS011;5365;51.640;8.106;2022-09-20T00:35:07;8.00;;;2.10;;
10633;SDS011;5365;51.640;8.106;2022-09-20T00:37:30;5.93;;;2.53;;
10633;SDS011;5365;51.640;8.106;2022-09-20T00:39:52;2.57;;;2.10;;
10633;SDS011;5365;51.640;8.106;2022-09-20T00:42:14;2.83;;;1.93;;
10633;SDS011;5365;51.640;8.106;2022-09-20T00:44:43;5.87;;;2.30;;
10633;SDS011;5365;51.640;8.106;2022-09-20T00:47:06;4.40;;;2.30;;
10633;SDS011;5365;51.640;8.106;2022-09-20T00:49:37;3.83;;;2.03;;
10633;SDS011;5365;51.640;8.106;2022-09-20T00:51:59;7.57;;;2.57;;
10633;SDS011;5365;51.640;8.106;2022-09-20T00:54:22;5.00;;;2.20;;
10633;SDS011;5365;51.640;8.106;2022-09-20T00:56:44;4.07;;;1.93;;
10633;SDS011;5365;51.640;8.106;2022-09-20T01:01:33;10.27;;;2.47;;
10633;SDS011;5365;51.640;8.106;2022-09-20T01:03:55;16.53;;;3.03;;
10633;SDS011;5365;51.640;8.106;2022-09-20T01:06:18;5.37;;;2.23;;
10633;SDS011;5365;51.640;8.106;2022-09-20T01:08:39;6.17;;;2.17;;
10633;SDS011;5365;51.640;8.106;2022-09-20T01:11:02;8.20;;;2.83;;
10633;SDS011;5365;51.640;8.106;2022-09-20T01:13:24;4.27;;;2.30;;
10633;SDS011;5365;51.640;8.106;2022-09-20T01:15:46;8.57;;;2.90;;
10633;SDS011;5365;51.640;8.106;2022-09-20T01:18:09;5.93;;;2.93;;
10633;SDS011;5365;51.640;8.106;2022-09-20T01:20:35;7.17;;;2.50;;
10633;SDS011;5365;51.640;8.106;2022-09-20T01:28:07;4.73;;;2.40;;
10633;SDS011;5365;51.640;8.106;2022-09-20T01:30:31;5.03;;;2.10;;
10633;SDS011;5365;51.640;8.106;2022-09-20T01:35:26;7.63;;;2.60;;
10633;SDS011;5365;51.640;8.106;2022-09-20T01:42:50;5.43;;;2.27;;
10633;SDS011;5365;51.640;8.106;2022-09-20T01:45:33;7.57;;;2.43;;
10633;SDS011;5365;51.640;8.106;2022-09-20T01:50:33;4.03;;;2.07;;
10633;SDS011;5365;51.640;8.106;2022-09-20T01:58:35;6.10;;;2.37;;
10633;SDS011;5365;51.640;8.106;2022-09-20T02:12:54;7.67;;;2.37;;
10633;SDS011;5365;51.640;8.106;2022-09-20T02:15:32;3.80;;;1.90;;
10633;SDS011;5365;51.640;8.106;2022-09-20T02:20:42;3.77;;;1.93;;
10633;SDS011;5365;51.640;8.106;2022-09-20T02:29:00;6.67;;;2.27;;
10633;SDS011;5365;51.640;8.106;2022-09-20T02:36:39;7.23;;;2.20;;
10633;SDS011;5365;51.640;8.106;2022-09-20T02:39:21;7.00;;;2.23;;
10633;SDS011;5365;51.640;8.106;2022-09-20T02:49:33;4.77;;;2.17;;
10633;SDS011;5365;51.640;8.106;2022-09-20T02:52:14;5.33;;;2.30;;
10633;SDS011;5365;51.640;8.106;2022-09-20T03:00:05;5.60;;;2.20;;
10633;SDS011;5365;51.640;8.106;2022-09-20T03:25:56;3.27;;;2.30;;
10633;SDS011;5365;51.640;8.106;2022-09-20T03:28:23;5.43;;;1.90;;
10633;SDS011;5365;51.640;8.106;2022-09-20T03:39:30;6.13;;;2.13;;
10633;SDS011;5365;51.640;8.106;2022-09-20T03:47:52;6.40;;;2.00;;
10633;SDS011;5365;51.640;8.106;2022-09-20T04:19:02;7.40;;;2.60;;
10633;SDS011;5365;51.640;8.106;2022-09-20T04:21:50;6.43;;;2.93;;
10633;SDS011;5365;51.640;8.106;2022-09-20T04:26:43;4.67;;;2.47;;
10633;SDS011;5365;51.640;8.106;2022-09-20T04:34:09;6.83;;;3.80;;
10633;SDS011;5365;51.640;8.106;2022-09-20T05:29:43;4.10;;;2.73;;
10633;SDS011;5365;51.640;8.106;2022-09-20T05:34:57;3.30;;;2.27;;
10633;SDS011;5365;51.640;8.106;2022-09-20T05:42:29;7.90;;;2.93;;
10633;SDS011;5365;51.640;8.106;2022-09-20T05:47:35;11.93;;;3.20;;
10633;SDS011;5365;51.640;8.106;2022-09-20T05:52:55;4.70;;;2.57;;
10633;SDS011;5365;51.640;8.106;2022-09-20T06:00:31;8.57;;;2.90;;
10633;SDS011;5365;51.640;8.106;2022-09-20T06:03:16;4.83;;;2.47;;
10633;SDS011;5365;51.640;8.106;2022-09-20T06:05:55;5.97;;;2.63;;
10633;SDS011;5365;51.640;8.106;2022-09-20T06:16:27;8.23;;;3.73;;
10633;SDS011;5365;51.640;8.106;2022-09-20T06:27:05;5.03;;;3.67;;
10633;SDS011;5365;51.640;8.106;2022-09-20T06:29:30;10.23;;;3.80;;
10633;SDS011;5365;51.640;8.106;2022-09-20T06:31:54;8.67;;;3.40;;
10633;SDS011;5365;51.640;8.106;2022-09-20T06:34:15;7.73;;;3.87;;
10633;SDS011;5365;51.640;8.106;2022-09-20T06:36:38;9.43;;;4.03;;
10633;SDS011;5365;51.640;8.106;2022-09-20T06:42:23;6.60;;;3.67;;
10633;SDS011;5365;51.640;8.106;2022-09-20T06:44:47;6.70;;;3.80;;
10633;SDS011;5365;51.640;8.106;2022-09-20T06:47:10;8.43;;;4.80;;
10633;SDS011;5365;51.640;8.106;2022-09-20T06:49:32;9.87;;;4.00;;
10633;SDS011;5365;51.640;8.106;2022-09-20T06:51:56;7.37;;;3.80;;
10633;SDS011;5365;51.640;8.106;2022-09-20T06:54:19;8.63;;;3.50;;
10633;SDS011;5365;51.640;8.106;2022-09-20T06:56:42;8.60;;;3.97;;
10633;SDS011;5365;51.640;8.106;2022-09-20T06:59:04;5.10;;;3.03;;
10633;SDS011;5365;51.640;8.106;2022-09-20T07:01:31;5.30;;;3.33;;
10633;SDS011;5365;51.640;8.106;2022-09-20T07:03:53;4.60;;;3.13;;
10633;SDS011;5365;51.640;8.106;2022-09-20T07:06:15;7.23;;;2.93;;
10633;SDS011;5365;51.640;8.106;2022-09-20T07:08:38;9.70;;;3.90;;
10633;SDS011;5365;51.640;8.106;2022-09-20T07:11:06;9.00;;;4.13;;
10633;SDS011;5365;51.640;8.106;2022-09-20T07:13:33;5.37;;;3.63;;
10633;SDS011;5365;51.640;8.106;2022-09-20T07:16:00;7.80;;;3.60;;
10633;SDS011;5365;51.640;8.106;2022-09-20T07:18:26;7.03;;;3.90;;
10633;SDS011;5365;51.640;8.106;2022-09-20T07:20:48;5.30;;;3.30;;
10633;SDS011;5365;51.640;8.106;2022-09-20T07:23:09;9.23;;;4.37;;
10633;SDS011;5365;51.640;8.106;2022-09-20T07:25:31;7.00;;;3.60;;
10633;SDS011;5365;51.640;8.106;2022-09-20T07:27:53;8.17;;;4.93;;
10633;SDS011;5365;51.640;8.106;2022-09-20T07:30:15;5.07;;;3.30;;
10633;SDS011;5365;51.640;8.106;2022-09-20T07:32:38;7.30;;;3.47;;
10633;SDS011;5365;51.640;8.106;2022-09-20T07:35:01;4.63;;;3.23;;
10633;SDS011;5365;51.640;8.106;2022-09-20T07:37:23;8.13;;;3.40;;
10633;SDS011;5365;51.640;8.106;2022-09-20T07:39:44;6.67;;;3.57;;
10633;SDS011;5365;51.640;8.106;2022-09-20T07:42:06;7.17;;;4.30;;
10633;SDS011;5365;51.640;8.106;2022-09-20T07:44:28;7.90;;;4.20;;
10633;SDS011;5365;51.640;8.106;2022-09-20T07:46:50;5.17;;;3.83;;
10633;SDS011;5365;51.640;8.106;2022-09-20T07:49:13;6.07;;;3.67;;
10633;SDS011;5365;51.640;8.106;2022-09-20T07:51:35;6.53;;;3.60;;
10633;SDS011;5365;51.640;8.106;2022-09-20T07:53:56;6.20;;;3.80;;
10633;SDS011;5365;51.640;8.106;2022-09-20T07:56:18;6.57;;;3.80;;
10633;SDS011;5365;51.640;8.106;2022-09-20T07:58:40;4.60;;;3.67;;
10633;SDS011;5365;51.640;8.106;2022-09-20T08:01:06;5.63;;;3.43;;
10633;SDS011;5365;51.640;8.106;2022-09-20T08:03:29;9.23;;;3.43;;
10633;SDS011;5365;51.640;8.106;2022-09-20T08:05:57;5.87;;;3.57;;
10633;SDS011;5365;51.640;8.106;2022-09-20T08:08:20;7.60;;;3.70;;
10633;SDS011;5365;51.640;8.106;2022-09-20T08:10:45;5.97;;;3.40;;
10633;SDS011;5365;51.640;8.106;2022-09-20T08:13:07;6.00;;;3.03;;
10633;SDS011;5365;51.640;8.106;2022-09-20T08:15:49;4.67;;;2.87;;
10633;SDS011;5365;51.640;8.106;2022-09-20T08:18:11;5.73;;;3.30;;
10633;SDS011;5365;51.640;8.106;2022-09-20T08:20:35;6.33;;;3.17;;
10633;SDS011;5365;51.640;8.106;2022-09-20T08:22:58;6.27;;;3.30;;
10633;SDS011;5365;51.640;8.106;2022-09-20T08:25:33;8.13;;;3.30;;
10633;SDS011;5365;51.640;8.106;2022-09-20T08:27:55;9.27;;;2.90;;
10633;SDS011;5365;51.640;8.106;2022-09-20T08:30:17;5.50;;;2.00;;
10633;SDS011;5365;51.640;8.106;2022-09-20T08:32:38;8.40;;;2.80;;
10633;SDS011;5365;51.640;8.106;2022-09-20T08:35:01;3.77;;;2.40;;
10633;SDS011;5365;51.640;8.106;2022-09-20T08:37:24;4.57;;;2.00;;
10633;SDS011;5365;51.640;8.106;2022-09-20T08:39:46;3.40;;;2.43;;
10633;SDS011;5365;51.640;8.106;2022-09-20T08:42:26;4.63;;;1.93;;
10633;SDS011;5365;51.640;8.106;2022-09-20T08:44:55;8.33;;;2.23;;
10633;SDS011;5365;51.640;8.106;2022-09-20T08:47:24;6.33;;;1.83;;
10633;SDS011;5365;51.640;8.106;2022-09-20T08:49:48;5.63;;;1.70;;
10633;SDS011;5365;51.640;8.106;2022-09-20T08:52:18;5.03;;;2.30;;
10633;SDS011;5365;51.640;8.106;2022-09-20T08:54:42;4.97;;;1.90;;
10633;SDS011;5365;51.640;8.106;2022-09-20T08:57:05;4.50;;;1.80;;
10633;SDS011;5365;51.640;8.106;2022-09-20T08:59:33;3.90;;;2.07;;
10633;SDS011;5365;51.640;8.106;2022-09-20T09:01:55;4.10;;;1.50;;
10633;SDS011;5365;51.640;8.106;2022-09-20T09:04:18;4.40;;;1.60;;
10633;SDS011;5365;51.640;8.106;2022-09-20T09:06:44;5.43;;;1.60;;
10633;SDS011;5365;51.640;8.106;2022-09-20T09:09:06;4.47;;;1.90;;
10633;SDS011;5365;51.640;8.106;2022-09-20T09:11:28;8.18;;;2.10;;
10633;SDS011;5365;51.640;8.106;2022-09-20T09:14:06;2.85;;;1.58;;
10633;SDS011;5365;51.640;8.106;2022-09-20T09:16:52;7.75;;;2.17;;
10633;SDS011;5365;51.640;8.106;2022-09-20T09:19:28;3.28;;;2.22;;
10633;SDS011;5365;51.640;8.106;2022-09-20T09:22:02;4.00;;;1.30;;
10633;SDS011;5365;51.640;8.106;2022-09-20T09:24:25;4.07;;;1.40;;
10633;SDS011;5365;51.640;8.106;2022-09-20T09:26:46;3.78;;;1.45;;
10633;SDS011;5365;51.640;8.106;2022-09-20T09:31:36;4.40;;;1.30;;
10633;SDS011;5365;51.640;8.106;2022-09-20T09:33:59;3.85;;;1.65;;
10633;SDS011;5365;51.640;8.106;2022-09-20T09:36:23;7.25;;;2.10;;
10633;SDS011;5365;51.640;8.106;2022-09-20T09:38:46;3.58;;;1.50;;
10633;SDS011;5365;51.640;8.106;2022-09-20T09:43:45;3.17;;;1.58;;
10633;SDS011;5365;51.640;8.106;2022-09-20T09:46:23;4.45;;;1.40;;
10633;SDS011;5365;51.640;8.106;2022-09-20T09:48:47;2.88;;;1.70;;
10633;SDS011;5365;51.640;8.106;2022-09-20T09:51:31;4.05;;;1.23;;
10633;SDS011;5365;51.640;8.106;2022-09-20T09:53:54;4.15;;;1.27;;
10633;SDS011;5365;51.640;8.106;2022-09-20T09:56:19;2.58;;;0.60;;
10633;SDS011;5365;51.640;8.106;2022-09-20T10:04:05;3.63;;;1.17;;
10633;SDS011;5365;51.640;8.106;2022-09-20T10:06:44;4.40;;;1.27;;
10633;SDS011;5365;51.640;8.106;2022-09-20T10:12:34;2.47;;;0.85;;
10633;SDS011;5365;51.640;8.106;2022-09-20T10:15:12;3.90;;;0.95;;
10633;SDS011;5365;51.640;8.106;2022-09-20T10:23:48;3.80;;;1.08;;
10633;SDS011;5365;51.640;8.106;2022-09-20T10:28:56;1.98;;;1.00;;
10633;SDS011;5365;51.640;8.106;2022-09-20T10:31:51;2.38;;;0.65;;
10633;SDS011;5365;51.640;8.106;2022-09-20T10:37:01;3.15;;;1.13;;
10633;SDS011;5365;51.640;8.106;2022-09-20T10:39:32;3.00;;;1.20;;
10633;SDS011;5365;51.640;8.106;2022-09-20T10:47:32;4.82;;;1.20;;
10633;SDS011;5365;51.640;8.106;2022-09-20T10:52:52;2.60;;;1.38;;
10633;SDS011;5365;51.640;8.106;2022-09-20T11:09:41;3.22;;;1.05;;
10633;SDS011;5365;51.640;8.106;2022-09-20T11:12:11;2.75;;;1.17;;
10633;SDS011;5365;51.640;8.106;2022-09-20T11:14:47;5.30;;;1.10;;
10633;SDS011;5365;51.640;8.106;2022-09-20T11:17:18;2.95;;;0.95;;
10633;SDS011;5365;51.640;8.106;2022-09-20T11:24:54;2.30;;;0.93;;
10633;SDS011;5365;51.640;8.106;2022-09-20T11:27:31;4.60;;;0.98;;
10633;SDS011;5365;51.640;8.106;2022-09-20T11:30:00;2.03;;;0.75;;
10633;SDS011;5365;51.640;8.106;2022-09-20T11:32:42;1.23;;;0.82;;
10633;SDS011;5365;51.640;8.106;2022-09-20T11:37:36;1.95;;;0.90;;
10633;SDS011;5365;51.640;8.106;2022-09-20T11:40:00;2.85;;;1.20;;
10633;SDS011;5365;51.640;8.106;2022-09-20T11:42:29;2.28;;;0.75;;
10633;SDS011;5365;51.640;8.106;2022-09-20T11:44:54;3.20;;;1.08;;
10633;SDS011;5365;51.640;8.106;2022-09-20T11:50:24;2.72;;;1.00;;
10633;SDS011;5365;51.640;8.106;2022-09-20T11:55:51;1.35;;;0.77;;
10633;SDS011;5365;51.640;8.106;2022-09-20T11:58:19;1.35;;;0.90;;
10633;SDS011;5365;51.640;8.106;2022-09-20T12:00:44;3.55;;;0.77;;
10633;SDS011;5365;51.640;8.106;2022-09-20T12:06:03;4.35;;;1.33;;
10633;SDS011;5365;51.640;8.106;2022-09-20T12:08:36;1.55;;;0.80;;
10633;SDS011;5365;51.640;8.106;2022-09-20T12:13:26;1.00;;;0.90;;
10633;SDS011;5365;51.640;8.106;2022-09-20T12:15:55;3.17;;;1.02;;
10633;SDS011;5365;51.640;8.106;2022-09-20T12:26:09;1.80;;;0.82;;
10633;SDS011;5365;51.640;8.106;2022-09-20T12:28:42;1.73;;;0.73;;
10633;SDS011;5365;51.640;8.106;2022-09-20T12:34:02;2.05;;;0.85;;
10633;SDS011;5365;51.640;8.106;2022-09-20T12:36:42;2.50;;;1.10;;
10633;SDS011;5365;51.640;8.106;2022-09-20T12:39:13;1.73;;;0.65;;
10633;SDS011;5365;51.640;8.106;2022-09-20T12:41:55;0.85;;;0.85;;
10633;SDS011;5365;51.640;8.106;2022-09-20T12:49:32;1.63;;;0.73;;
10633;SDS011;5365;51.640;8.106;2022-09-20T12:52:22;2.55;;;0.75;;
10633;SDS011;5365;51.640;8.106;2022-09-20T12:55:04;3.85;;;1.27;;
10633;SDS011;5365;51.640;8.106;2022-09-20T12:57:29;1.20;;;0.90;;
10633;SDS011;5365;51.640;8.106;2022-09-20T12:59:56;1.90;;;0.77;;
10633;SDS011;5365;51.640;8.106;2022-09-20T13:05:33;2.75;;;1.17;;
10633;SDS011;5365;51.640;8.106;2022-09-20T13:08:16;1.83;;;0.90;;
10633;SDS011;5365;51.640;8.106;2022-09-20T13:10:42;2.92;;;1.00;;
10633;SDS011;5365;51.640;8.106;2022-09-20T13:13:12;3.53;;;0.93;;
10633;SDS011;5365;51.640;8.106;2022-09-20T13:15:48;1.25;;;0.80;;
10633;SDS011;5365;51.640;8.106;2022-09-20T13:18:12;1.38;;;0.60;;
10633;SDS011;5365;51.640;8.106;2022-09-20T13:20:35;1.75;;;1.05;;
10633;SDS011;5365;51.640;8.106;2022-09-20T13:22:57;2.55;;;0.98;;
10633;SDS011;5365;51.640;8.106;2022-09-20T13:25:20;1.65;;;0.68;;
10633;SDS011;5365;51.640;8.106;2022-09-20T13:27:59;2.00;;;0.88;;
10633;SDS011;5365;51.640;8.106;2022-09-20T13:30:28;1.05;;;0.80;;
10633;SDS011;5365;51.640;8.106;2022-09-20T13:32:53;0.82;;;0.80;;
10633;SDS011;5365;51.640;8.106;2022-09-20T13:35:19;0.80;;;0.77;;
10633;SDS011;5365;51.640;8.106;2022-09-20T13:37:51;0.70;;;0.70;;
10633;SDS011;5365;51.640;8.106;2022-09-20T13:40:32;0.95;;;0.90;;
10633;SDS011;5365;51.640;8.106;2022-09-20T13:42:55;3.65;;;1.00;;
10633;SDS011;5365;51.640;8.106;2022-09-20T13:45:33;2.97;;;1.10;;
10633;SDS011;5365;51.640;8.106;2022-09-20T13:47:57;1.40;;;0.80;;
10633;SDS011;5365;51.640;8.106;2022-09-20T13:50:33;1.52;;;0.68;;
10633;SDS011;5365;51.640;8.106;2022-09-20T13:52:57;2.30;;;0.73;;
10633;SDS011;5365;51.640;8.106;2022-09-20T13:57:49;2.10;;;1.17;;
10633;SDS011;5365;51.640;8.106;2022-09-20T14:00:12;2.17;;;1.02;;
10633;SDS011;5365;51.640;8.106;2022-09-20T14:02:35;1.77;;;1.00;;
10633;SDS011;5365;51.640;8.106;2022-09-20T14:05:02;1.05;;;0.70;;
10633;SDS011;5365;51.640;8.106;2022-09-20T14:07:25;1.20;;;0.85;;
10633;SDS011;5365;51.640;8.106;2022-09-20T14:09:48;1.05;;;0.60;;
10633;SDS011;5365;51.640;8.106;2022-09-20T14:12:11;1.95;;;0.70;;
10633;SDS011;5365;51.640;8.106;2022-09-20T14:14:34;2.03;;;1.08;;
10633;SDS011;5365;51.640;8.106;2022-09-20T14:16:56;2.63;;;1.00;;
10633;SDS011;5365;51.640;8.106;2022-09-20T14:19:24;1.02;;;0.93;;
10633;SDS011;5365;51.640;8.106;2022-09-20T14:21:47;0.68;;;0.65;;
10633;SDS011;5365;51.640;8.106;2022-09-20T14:26:38;0.90;;;0.68;;
10633;SDS011;5365;51.640;8.106;2022-09-20T14:34:38;0.75;;;0.50;;
10633;SDS011;5365;51.640;8.106;2022-09-20T14:37:22;1.63;;;0.50;;
10633;SDS011;5365;51.640;8.106;2022-09-20T14:39:57;1.17;;;0.52;;
10633;SDS011;5365;51.640;8.106;2022-09-20T14:42:21;2.72;;;0.75;;
10633;SDS011;5365;51.640;8.106;2022-09-20T14:44:55;0.95;;;0.88;;
10633;SDS011;5365;51.640;8.106;2022-09-20T14:47:27;2.05;;;1.00;;
10633;SDS011;5365;51.640;8.106;2022-09-20T14:50:00;1.27;;;0.85;;
10633;SDS011;5365;51.640;8.106;2022-09-20T14:54:55;1.77;;;0.77;;
10633;SDS011;5365;51.640;8.106;2022-09-20T14:57:19;2.97;;;1.13;;
10633;SDS011;5365;51.640;8.106;2022-09-20T14:59:41;2.60;;;1.20;;
10633;SDS011;5365;51.640;8.106;2022-09-20T15:02:13;2.70;;;1.00;;
10633;SDS011;5365;51.640;8.106;2022-09-20T15:04:35;3.75;;;0.93;;
10633;SDS011;5365;51.640;8.106;2022-09-20T15:07:01;1.17;;;0.82;;
10633;SDS011;5365;51.640;8.106;2022-09-20T15:09:24;2.58;;;1.10;;
10633;SDS011;5365;51.640;8.106;2022-09-20T15:11:47;2.05;;;0.90;;
10633;SDS011;5365;51.640;8.106;2022-09-20T15:14:19;2.97;;;1.10;;
10633;SDS011;5365;51.640;8.106;2022-09-20T15:16:41;2.38;;;1.00;;
10633;SDS011;5365;51.640;8.106;2022-09-20T15:19:03;2.63;;;1.10;;
10633;SDS011;5365;51.640;8.106;2022-09-20T15:21:26;1.77;;;1.20;;
10633;SDS011;5365;51.640;8.106;2022-09-20T15:23:48;1.98;;;1.10;;
10633;SDS011;5365;51.640;8.106;2022-09-20T15:26:10;2.92;;;0.93;;
10633;SDS011;5365;51.640;8.106;2022-09-20T15:28:33;3.08;;;0.98;;
10633;SDS011;5365;51.640;8.106;2022-09-20T15:30:55;3.33;;;1.00;;
10633;SDS011;5365;51.640;8.106;2022-09-20T15:33:18;1.30;;;0.90;;
10633;SDS011;5365;51.640;8.106;2022-09-20T15:35:41;0.95;;;0.85;;
10633;SDS011;5365;51.640;8.106;2022-09-20T15:38:03;2.70;;;1.35;;
10633;SDS011;5365;51.640;8.106;2022-09-20T15:40:26;1.48;;;0.90;;
10633;SDS011;5365;51.640;8.106;2022-09-20T15:42:53;1.38;;;0.90;;
10633;SDS011;5365;51.640;8.106;2022-09-20T15:45:15;1.02;;;0.95;;
10633;SDS011;5365;51.640;8.106;2022-09-20T15:47:38;3.03;;;0.80;;
10633;SDS011;5365;51.640;8.106;2022-09-20T15:50:00;3.38;;;1.15;;
10633;SDS011;5365;51.640;8.106;2022-09-20T15:52:23;4.25;;;1.02;;
10633;SDS011;5365;51.640;8.106;2022-09-20T15:54:45;1.08;;;0.93;;
10633;SDS011;5365;51.640;8.106;2022-09-20T15:57:07;1.83;;;1.10;;
10633;SDS011;5365;51.640;8.106;2022-09-20T15:59:28;1.92;;;1.13;;
10633;SDS011;5365;51.640;8.106;2022-09-20T16:01:50;1.45;;;1.10;;
10633;SDS011;5365;51.640;8.106;2022-09-20T16:04:16;3.35;;;1.58;;
10633;SDS011;5365;51.640;8.106;2022-09-20T16:06:40;1.13;;;0.80;;
10633;SDS011;5365;51.640;8.106;2022-09-20T16:09:03;2.72;;;1.00;;
10633;SDS011;5365;51.640;8.106;2022-09-20T16:11:25;2.13;;;1.40;;
10633;SDS011;5365;51.640;8.106;2022-09-20T16:13:52;2.08;;;0.98;;
10633;SDS011;5365;51.640;8.106;2022-09-20T16:16:14;2.13;;;1.05;;
10633;SDS011;5365;51.640;8.106;2022-09-20T16:18:38;2.80;;;1.08;;
10633;SDS011;5365;51.640;8.106;2022-09-20T16:21:18;2.28;;;1.00;;
10633;SDS011;5365;51.640;8.106;2022-09-20T16:23:40;2.50;;;1.10;;
10633;SDS011;5365;51.640;8.106;2022-09-20T16:26:04;3.17;;;1.20;;
10633;SDS011;5365;51.640;8.106;2022-09-20T16:28:26;1.65;;;1.05;;
10633;SDS011;5365;51.640;8.106;2022-09-20T16:30:58;2.13;;;0.90;;
10633;SDS011;5365;51.640;8.106;2022-09-20T16:33:20;1.92;;;1.05;;
10633;SDS011;5365;51.640;8.106;2022-09-20T16:35:42;1.83;;;0.80;;
10633;SDS011;5365;51.640;8.106;2022-09-20T16:38:03;1.63;;;0.95;;
10633;SDS011;5365;51.640;8.106;2022-09-20T16:40:25;3.30;;;0.90;;
10633;SDS011;5365;51.640;8.106;2022-09-20T16:42:47;2.80;;;1.02;;
10633;SDS011;5365;51.640;8.106;2022-09-20T16:45:11;3.85;;;1.05;;
10633;SDS011;5365;51.640;8.106;2022-09-20T16:47:36;1.73;;;0.82;;
10633;SDS011;5365;51.640;8.106;2022-09-20T16:50:01;0.73;;;0.73;;
10633;SDS011;5365;51.640;8.106;2022-09-20T16:52:23;3.10;;;0.80;;
10633;SDS011;5365;51.640;8.106;2022-09-20T16:54:46;0.80;;;0.80;;
10633;SDS011;5365;51.640;8.106;2022-09-20T16:57:08;1.95;;;0.77;;
10633;SDS011;5365;51.640;8.106;2022-09-20T16:59:30;0.50;;;0.50;;
10633;SDS011;5365;51.640;8.106;2022-09-20T17:01:51;0.93;;;0.63;;
10633;SDS011;5365;51.640;8.106;2022-09-20T17:04:13;1.38;;;1.00;;
10633;SDS011;5365;51.640;8.106;2022-09-20T17:06:39;1.08;;;0.88;;
10633;SDS011;5365;51.640;8.106;2022-09-20T17:09:02;0.55;;;0.52;;
10633;SDS011;5365;51.640;8.106;2022-09-20T17:11:26;0.95;;;0.80;;
10633;SDS011;5365;51.640;8.106;2022-09-20T17:13:50;2.08;;;1.00;;
10633;SDS011;5365;51.640;8.106;2022-09-20T17:16:20;2.08;;;1.02;;
10633;SDS011;5365;51.640;8.106;2022-09-20T17:18:49;2.47;;;0.98;;
10633;SDS011;5365;51.640;8.106;2022-09-20T17:21:13;2.33;;;1.00;;
10633;SDS011;5365;51.640;8.106;2022-09-20T17:23:36;2.65;;;0.75;;
10633;SDS011;5365;51.640;8.106;2022-09-20T17:26:02;0.95;;;0.70;;
10633;SDS011;5365;51.640;8.106;2022-09-20T17:28:26;15.00;;;1.98;;
10633;SDS011;5365;51.640;8.106;2022-09-20T17:30:48;1.20;;;0.70;;
10633;SDS011;5365;51.640;8.106;2022-09-20T17:33:10;2.28;;;0.90;;
10633;SDS011;5365;51.640;8.106;2022-09-20T17:35:31;1.47;;;0.90;;
10633;SDS011;5365;51.640;8.106;2022-09-20T17:37:53;0.63;;;0.63;;
10633;SDS011;5365;51.640;8.106;2022-09-20T17:40:15;2.33;;;1.17;;
10633;SDS011;5365;51.640;8.106;2022-09-20T17:42:36;2.10;;;1.07;;
10633;SDS011;5365;51.640;8.106;2022-09-20T17:44:59;1.70;;;1.30;;
10633;SDS011;5365;51.640;8.106;2022-09-20T17:47:21;2.37;;;1.47;;
10633;SDS011;5365;51.640;8.106;2022-09-20T17:49:45;2.23;;;1.97;;
10633;SDS011;5365;51.640;8.106;2022-09-20T17:52:06;3.10;;;2.47;;
10633;SDS011;5365;51.640;8.106;2022-09-20T17:54:28;3.60;;;2.73;;
10633;SDS011;5365;51.640;8.106;2022-09-20T17:56:51;3.23;;;3.03;;
10633;SDS011;5365;51.640;8.106;2022-09-20T17:59:14;2.27;;;1.70;;
10633;SDS011;5365;51.640;8.106;2022-09-20T18:01:36;2.63;;;1.37;;
10633;SDS011;5365;51.640;8.106;2022-09-20T18:03:59;1.40;;;1.17;;
10633;SDS011;5365;51.640;8.106;2022-09-20T18:08:48;1.37;;;1.23;;
10633;SDS011;5365;51.640;8.106;2022-09-20T18:11:15;2.30;;;1.30;;
10633;SDS011;5365;51.640;8.106;2022-09-20T18:13:39;1.70;;;1.50;;
10633;SDS011;5365;51.640;8.106;2022-09-20T18:16:01;2.87;;;1.90;;
10633;SDS011;5365;51.640;8.106;2022-09-20T18:18:22;1.93;;;1.80;;
10633;SDS011;5365;51.640;8.106;2022-09-20T18:20:44;1.60;;;1.50;;
10633;SDS011;5365;51.640;8.106;2022-09-20T18:23:06;3.87;;;2.53;;
10633;SDS011;5365;51.640;8.106;2022-09-20T18:25:28;3.03;;;1.93;;
10633;SDS011;5365;51.640;8.106;2022-09-20T18:27:50;3.50;;;1.80;;
10633;SDS011;5365;51.640;8.106;2022-09-20T18:30:11;3.63;;;2.20;;
10633;SDS011;5365;51.640;8.106;2022-09-20T18:32:33;2.60;;;1.90;;
10633;SDS011;5365;51.640;8.106;2022-09-20T18:34:55;2.87;;;1.63;;
10633;SDS011;5365;51.640;8.106;2022-09-20T18:37:16;3.07;;;2.20;;
10633;SDS011;5365;51.640;8.106;2022-09-20T18:39:38;3.80;;;2.30;;
10633;SDS011;5365;51.640;8.106;2022-09-20T18:42:00;3.60;;;2.57;;
10633;SDS011;5365;51.640;8.106;2022-09-20T18:44:23;3.93;;;2.83;;
10633;SDS011;5365;51.640;8.106;2022-09-20T18:46:46;3.37;;;2.63;;
10633;SDS011;5365;51.640;8.106;2022-09-20T18:49:08;3.93;;;2.63;;
10633;SDS011;5365;51.640;8.106;2022-09-20T18:51:33;8.10;;;3.43;;
10633;SDS011;5365;51.640;8.106;2022-09-20T18:53:57;6.50;;;3.97;;
10633;SDS011;5365;51.640;8.106;2022-09-20T18:58:44;6.03;;;4.23;;
10633;SDS011;5365;51.640;8.106;2022-09-20T19:12:10;3.77;;;3.00;;
10633;SDS011;5365;51.640;8.106;2022-09-20T19:17:21;3.83;;;3.13;;
10633;SDS011;5365;51.640;8.106;2022-09-20T19:20:03;4.27;;;2.83;;
10633;SDS011;5365;51.640;8.106;2022-09-20T19:25:38;5.47;;;3.10;;
10633;SDS011;5365;51.640;8.106;2022-09-20T19:28:04;6.03;;;2.73;;
10633;SDS011;5365;51.640;8.106;2022-09-20T19:30:26;3.63;;;2.33;;
10633;SDS011;5365;51.640;8.106;2022-09-20T19:32:48;2.97;;;2.33;;
10633;SDS011;5365;51.640;8.106;2022-09-20T19:35:15;2.23;;;2.03;;
10633;SDS011;5365;51.640;8.106;2022-09-20T19:43:12;2.93;;;2.50;;
10633;SDS011;5365;51.640;8.106;2022-09-20T19:48:45;5.30;;;3.27;;
10633;SDS011;5365;51.640;8.106;2022-09-20T19:51:11;4.00;;;3.23;;
10633;SDS011;5365;51.640;8.106;2022-09-20T19:53:34;4.37;;;3.30;;
10633;SDS011;5365;51.640;8.106;2022-09-20T19:56:32;3.47;;;3.17;;
10633;SDS011;5365;51.640;8.106;2022-09-20T19:58:48;5.70;;;3.50;;
10633;SDS011;5365;51.640;8.106;2022-09-20T20:01:13;3.40;;;3.00;;
10633;SDS011;5365;51.640;8.106;2022-09-20T20:03:35;3.93;;;3.60;;
10633;SDS011;5365;51.640;8.106;2022-09-20T20:06:00;4.30;;;3.53;;
10633;SDS011;5365;51.640;8.106;2022-09-20T20:08:41;4.60;;;3.77;;
10633;SDS011;5365;51.640;8.106;2022-09-20T20:11:31;4.17;;;3.80;;
10633;SDS011;5365;51.640;8.106;2022-09-20T20:24:50;6.10;;;4.27;;
10633;SDS011;5365;51.640;8.106;2022-09-20T20:27:13;5.70;;;4.03;;
10633;SDS011;5365;51.640;8.106;2022-09-20T20:29:34;6.30;;;4.03;;
10633;SDS011;5365;51.640;8.106;2022-09-20T20:31:56;6.03;;;3.60;;
10633;SDS011;5365;51.640;8.106;2022-09-20T20:34:18;4.80;;;3.73;;
10633;SDS011;5365;51.640;8.106;2022-09-20T20:36:41;6.60;;;3.63;;
10633;SDS011;5365;51.640;8.106;2022-09-20T20:39:04;5.17;;;3.83;;
10633;SDS011;5365;51.640;8.106;2022-09-20T20:41:26;6.73;;;3.77;;
10633;SDS011;5365;51.640;8.106;2022-09-20T20:43:51;3.93;;;3.47;;
10633;SDS011;5365;51.640;8.106;2022-09-20T20:46:16;3.97;;;3.63;;
10633;SDS011;5365;51.640;8.106;2022-09-20T20:48:41;3.97;;;3.67;;
10633;SDS011;5365;51.640;8.106;2022-09-20T20:51:10;4.93;;;3.90;;
10633;SDS011;5365;51.640;8.106;2022-09-20T20:53:34;6.20;;;4.03;;
10633;SDS011;5365;51.640;8.106;2022-09-20T20:55:59;4.33;;;3.80;;
10633;SDS011;5365;51.640;8.106;2022-09-20T20:58:21;4.37;;;3.60;;
10633;SDS011;5365;51.640;8.106;2022-09-20T21:00:43;10.47;;;3.73;;